Saint-Casimir, Canada
Current Conditions -  °F | °C
As of 8:00 AM on Thursday 27 Nov 2014 (Local Time) from CYOY Reporting Station
Clear Clear  
Wind Chill: 25°   Ceiling: Unl
Heat Index: 25°   Visibility: 9mi
Dew Point: 14°   Wind: 0mph
Humidity: 64%   Direction: NA
Pressure: 29.95"   Gusts: NA
Location:  46.67°N, 72.13°W
Report Text: CYOY 271300Z AUTO 00000KT 9SM CLR M04/M10 A2995 RMK SLP153
Loading
Personal Weather Stations






























Interactive Weather Map New forecast layout! Learn more

10-Day Weather Forecast

Advertisements
Track Severe Weather on mobile